AAL511 EPWA-BGSF
Flight info
| Callsign | AAL511 |
|---|---|
| Flight time | N/A |
| Altitude | 38000 |
| Route | OLILA L621 LUSID DCT KULUD L621 LAGUM DCT PEVEB DCT EPOTU DCT ERSER/M082F380 DCT 6410N DCT 66N023W 67N036W |
| Aircraft | B77L/H-SDE1E2E3FGHIJ2J3J4J5M1RWXY/LB1D1 |
Departure
| Time | N/A |
|---|---|
| Airport | Warsaw Chopin Airport (EPWA) |
Arrival
| Time | 2026-04-12 23:06 |
|---|---|
| Airport | Kangerlussuaq International Airport (BGSF) |
| Time | Latitude | Longitude | Altitude | Speed | Heading |
|---|---|---|---|---|---|
| 2026-04-12 19:39 | 58.67013 | 6.48254 | 38035 ft | 489 kts | 311° |
| 2026-04-12 19:40 | 58.71859 | 6.39074 | 38024 ft | 490 kts | 311° |
| 2026-04-12 19:40 | 58.76698 | 6.29845 | 38019 ft | 489 kts | 310° |
| 2026-04-12 19:41 | 58.80713 | 6.22163 | 38004 ft | 489 kts | 311° |
| 2026-04-12 19:41 | 58.86280 | 6.11469 | 38030 ft | 484 kts | 310° |
| 2026-04-12 19:42 | 58.91069 | 6.02230 | 38013 ft | 488 kts | 310° |
| 2026-04-12 19:42 | 58.95885 | 5.92906 | 37984 ft | 491 kts | 310° |
| 2026-04-12 19:43 | 59.03149 | 5.78757 | 37992 ft | 495 kts | 310° |
| 2026-04-12 19:43 | 59.07974 | 5.69313 | 37991 ft | 496 kts | 310° |
| 2026-04-12 19:44 | 59.12831 | 5.59770 | 37996 ft | 497 kts | 310° |
| 2026-04-12 19:44 | 59.17684 | 5.50190 | 37981 ft | 497 kts | 310° |
| 2026-04-12 19:45 | 59.21715 | 5.42203 | 37966 ft | 496 kts | 310° |
| 2026-04-12 19:45 | 59.26551 | 5.32577 | 37958 ft | 496 kts | 310° |
| 2026-04-12 19:46 | 59.32156 | 5.21370 | 37975 ft | 496 kts | 310° |
| 2026-04-12 19:46 | 59.36158 | 5.13336 | 37967 ft | 495 kts | 310° |
| 2026-04-12 19:47 | 59.40964 | 5.03655 | 37952 ft | 495 kts | 310° |
| 2026-04-12 19:47 | 59.45758 | 4.93949 | 37971 ft | 495 kts | 310° |
| 2026-04-12 19:48 | 59.51315 | 4.82644 | 37954 ft | 495 kts | 310° |
| 2026-04-12 19:48 | 59.55315 | 4.74473 | 37945 ft | 495 kts | 310° |
| 2026-04-12 19:49 | 59.60055 | 4.64750 | 37945 ft | 495 kts | 310° |
| 2026-04-12 19:49 | 59.64821 | 4.54931 | 37931 ft | 495 kts | 309° |
| 2026-04-12 19:50 | 59.69586 | 4.45074 | 37923 ft | 496 kts | 309° |
| 2026-04-12 19:50 | 59.74344 | 4.35184 | 37931 ft | 496 kts | 309° |
| 2026-04-12 19:51 | 59.79074 | 4.25311 | 37919 ft | 497 kts | 309° |
| 2026-04-12 19:51 | 59.83838 | 4.15324 | 37923 ft | 498 kts | 309° |
| 2026-04-12 19:52 | 59.88593 | 4.05289 | 37924 ft | 498 kts | 308° |
| 2026-04-12 19:52 | 59.93158 | 3.94905 | 37913 ft | 498 kts | 306° |
| 2026-04-12 19:53 | 59.97605 | 3.84414 | 37900 ft | 498 kts | 307° |
| 2026-04-12 19:53 | 60.02153 | 3.73963 | 37885 ft | 498 kts | 306° |
| 2026-04-12 19:54 | 60.06624 | 3.63361 | 37850 ft | 499 kts | 306° |
| 2026-04-12 19:54 | 60.11108 | 3.52727 | 37826 ft | 500 kts | 306° |
| 2026-04-12 19:55 | 60.15606 | 3.42098 | 37798 ft | 500 kts | 306° |
| 2026-04-12 19:55 | 60.20073 | 3.31513 | 37790 ft | 500 kts | 306° |
| 2026-04-12 19:56 | 60.24566 | 3.20820 | 37783 ft | 500 kts | 306° |
| 2026-04-12 19:56 | 60.29042 | 3.10111 | 37773 ft | 500 kts | 306° |
| 2026-04-12 19:57 | 60.33517 | 2.99354 | 37767 ft | 500 kts | 306° |
| 2026-04-12 19:57 | 60.37956 | 2.88631 | 37760 ft | 501 kts | 306° |
| 2026-04-12 19:58 | 60.42416 | 2.77808 | 37753 ft | 501 kts | 306° |
| 2026-04-12 19:58 | 60.46871 | 2.66947 | 37773 ft | 501 kts | 306° |
| 2026-04-12 19:59 | 60.51317 | 2.56055 | 37780 ft | 501 kts | 305° |
| 2026-04-12 19:59 | 60.55719 | 2.45213 | 37778 ft | 501 kts | 305° |
| 2026-04-12 20:00 | 60.60150 | 2.34260 | 37777 ft | 501 kts | 305° |
| 2026-04-12 20:00 | 60.64576 | 2.23269 | 37768 ft | 502 kts | 305° |
| 2026-04-12 20:01 | 60.68995 | 2.12238 | 37765 ft | 503 kts | 305° |
| 2026-04-12 20:01 | 60.73410 | 2.01156 | 37757 ft | 503 kts | 305° |
| 2026-04-12 20:02 | 60.77789 | 1.90119 | 37744 ft | 503 kts | 305° |
| 2026-04-12 20:02 | 60.82191 | 1.78969 | 37736 ft | 504 kts | 305° |
| 2026-04-12 20:03 | 60.86584 | 1.67787 | 37751 ft | 503 kts | 305° |
| 2026-04-12 20:03 | 60.90967 | 1.56576 | 37727 ft | 504 kts | 305° |
| 2026-04-12 20:04 | 60.95314 | 1.45405 | 37715 ft | 504 kts | 305° |
| 2026-04-12 20:04 | 60.99682 | 1.34118 | 37723 ft | 504 kts | 305° |
| 2026-04-12 20:05 | 61.04043 | 1.22800 | 37716 ft | 504 kts | 304° |
| 2026-04-12 20:05 | 61.08392 | 1.11461 | 37722 ft | 504 kts | 304° |
| 2026-04-12 20:06 | 61.12734 | 1.00081 | 37714 ft | 504 kts | 304° |
| 2026-04-12 20:06 | 61.17038 | 0.88747 | 37729 ft | 504 kts | 304° |
| 2026-04-12 20:07 | 61.21361 | 0.77298 | 37719 ft | 504 kts | 304° |
| 2026-04-12 20:07 | 61.25676 | 0.65820 | 37712 ft | 504 kts | 304° |
| 2026-04-12 20:08 | 61.29983 | 0.54301 | 37710 ft | 505 kts | 304° |
| 2026-04-12 20:08 | 61.34257 | 0.42814 | 37711 ft | 505 kts | 304° |
| 2026-04-12 20:09 | 61.38556 | 0.31202 | 37713 ft | 506 kts | 304° |
| 2026-04-12 20:09 | 61.42847 | 0.19555 | 37704 ft | 507 kts | 304° |
| 2026-04-12 20:10 | 61.47137 | 0.07850 | 37704 ft | 508 kts | 304° |
| 2026-04-12 20:10 | 61.51303 | -0.03958 | 37694 ft | 507 kts | 300° |
| 2026-04-12 20:11 | 61.55136 | -0.16292 | 37699 ft | 504 kts | 299° |
| 2026-04-12 20:11 | 61.58880 | -0.28690 | 37679 ft | 502 kts | 299° |
| 2026-04-12 20:12 | 61.62620 | -0.41051 | 37663 ft | 500 kts | 299° |
| 2026-04-12 20:12 | 61.66352 | -0.53356 | 37664 ft | 498 kts | 300° |
| 2026-04-12 20:13 | 61.70047 | -0.65580 | 37663 ft | 497 kts | 300° |
| 2026-04-12 20:14 | 61.75597 | -0.84060 | 37654 ft | 497 kts | 299° |
| 2026-04-12 20:14 | 61.79283 | -0.96422 | 37653 ft | 497 kts | 299° |
| 2026-04-12 20:15 | 61.82961 | -1.08829 | 37647 ft | 498 kts | 299° |
| 2026-04-12 20:15 | 61.86610 | -1.21201 | 37647 ft | 499 kts | 299° |
| 2026-04-12 20:16 | 61.90285 | -1.33732 | 37639 ft | 501 kts | 299° |
| 2026-04-12 20:16 | 61.93955 | -1.46314 | 37572 ft | 503 kts | 299° |
| 2026-04-12 20:17 | 61.97627 | -1.58977 | 37563 ft | 503 kts | 298° |
| 2026-04-12 20:17 | 62.01289 | -1.71669 | 37552 ft | 504 kts | 298° |
| 2026-04-12 20:18 | 62.04919 | -1.84323 | 37554 ft | 504 kts | 298° |
| 2026-04-12 20:18 | 62.08561 | -1.97091 | 37553 ft | 504 kts | 298° |
| 2026-04-12 20:19 | 62.12190 | -2.09889 | 37550 ft | 504 kts | 298° |
| 2026-04-12 20:19 | 62.15808 | -2.22708 | 37542 ft | 504 kts | 298° |
| 2026-04-12 20:20 | 62.19391 | -2.35478 | 37581 ft | 503 kts | 298° |
| 2026-04-12 20:20 | 62.22971 | -2.48319 | 37625 ft | 502 kts | 298° |
| 2026-04-12 20:21 | 62.26540 | -2.61199 | 37627 ft | 502 kts | 298° |
| 2026-04-12 20:21 | 62.30104 | -2.74126 | 37630 ft | 503 kts | 298° |
| 2026-04-12 20:22 | 62.33663 | -2.87107 | 37628 ft | 504 kts | 297° |
| 2026-04-12 20:22 | 62.37189 | -3.00044 | 37636 ft | 505 kts | 297° |
| 2026-04-12 20:23 | 62.40730 | -3.13116 | 37645 ft | 505 kts | 297° |
| 2026-04-12 20:23 | 62.44270 | -3.26257 | 37556 ft | 508 kts | 297° |
| 2026-04-12 20:24 | 62.47807 | -3.39467 | 37507 ft | 508 kts | 297° |
| 2026-04-12 20:24 | 62.51308 | -3.52611 | 37499 ft | 507 kts | 297° |
| 2026-04-12 20:25 | 62.54810 | -3.65827 | 37490 ft | 505 kts | 297° |
| 2026-04-12 20:25 | 62.58289 | -3.79050 | 37484 ft | 504 kts | 297° |
| 2026-04-12 20:26 | 62.61743 | -3.92257 | 37479 ft | 502 kts | 297° |
| 2026-04-12 20:26 | 62.65156 | -4.05384 | 37476 ft | 502 kts | 297° |
| 2026-04-12 20:27 | 62.68574 | -4.18614 | 37463 ft | 502 kts | 297° |
| 2026-04-12 20:27 | 62.71982 | -4.31872 | 37443 ft | 501 kts | 297° |
| 2026-04-12 20:28 | 62.75371 | -4.45143 | 37454 ft | 501 kts | 296° |
| 2026-04-12 20:28 | 62.78752 | -4.58470 | 37451 ft | 502 kts | 296° |
| 2026-04-12 20:29 | 62.82105 | -4.71755 | 37443 ft | 503 kts | 296° |
| 2026-04-12 20:29 | 62.85475 | -4.85184 | 37440 ft | 504 kts | 296° |
| 2026-04-12 20:30 | 62.88836 | -4.98664 | 37439 ft | 505 kts | 296° |
| 2026-04-12 20:30 | 62.92188 | -5.12189 | 37439 ft | 505 kts | 296° |
| 2026-04-12 20:31 | 62.95536 | -5.25782 | 37433 ft | 506 kts | 296° |
| 2026-04-12 20:31 | 62.98848 | -5.39311 | 37432 ft | 506 kts | 296° |
| 2026-04-12 20:32 | 63.02168 | -5.52963 | 37429 ft | 506 kts | 296° |
| 2026-04-12 20:32 | 63.05476 | -5.66658 | 37425 ft | 506 kts | 296° |
| 2026-04-12 20:33 | 63.08771 | -5.80372 | 37421 ft | 506 kts | 296° |
| 2026-04-12 20:33 | 63.12030 | -5.94020 | 37421 ft | 506 kts | 296° |
| 2026-04-12 20:34 | 63.15295 | -6.07783 | 37424 ft | 506 kts | 296° |
| 2026-04-12 20:34 | 63.18547 | -6.21587 | 37420 ft | 505 kts | 296° |
| 2026-04-12 20:35 | 63.21781 | -6.35400 | 37420 ft | 505 kts | 296° |
| 2026-04-12 20:35 | 63.24978 | -6.49137 | 37415 ft | 504 kts | 295° |
| 2026-04-12 20:36 | 63.28181 | -6.62990 | 37412 ft | 504 kts | 295° |
| 2026-04-12 20:36 | 63.31369 | -6.76866 | 37411 ft | 503 kts | 295° |
| 2026-04-12 20:37 | 63.34540 | -6.90749 | 37412 ft | 503 kts | 295° |
| 2026-04-12 20:37 | 63.37696 | -7.04662 | 37417 ft | 503 kts | 295° |
| 2026-04-12 20:38 | 63.40816 | -7.18506 | 37424 ft | 503 kts | 295° |
| 2026-04-12 20:38 | 63.43945 | -7.32482 | 37423 ft | 503 kts | 295° |
| 2026-04-12 20:39 | 63.47062 | -7.46499 | 37425 ft | 504 kts | 295° |
| 2026-04-12 20:39 | 63.50169 | -7.60562 | 37431 ft | 504 kts | 295° |
| 2026-04-12 20:40 | 63.53268 | -7.74679 | 37428 ft | 505 kts | 295° |
| 2026-04-12 20:40 | 63.56331 | -7.88729 | 37430 ft | 505 kts | 295° |
| 2026-04-12 20:41 | 63.59408 | -8.02931 | 37436 ft | 506 kts | 295° |
| 2026-04-12 20:41 | 63.62472 | -8.17177 | 37440 ft | 506 kts | 295° |
| 2026-04-12 20:42 | 63.65523 | -8.31457 | 37443 ft | 507 kts | 295° |
| 2026-04-12 20:42 | 63.68543 | -8.45677 | 37447 ft | 507 kts | 294° |
| 2026-04-12 20:43 | 63.71566 | -8.60024 | 37456 ft | 506 kts | 294° |
| 2026-04-12 20:43 | 63.74575 | -8.74394 | 37448 ft | 506 kts | 294° |
| 2026-04-12 20:44 | 63.77564 | -8.88767 | 37452 ft | 505 kts | 294° |
| 2026-04-12 20:44 | 63.80513 | -9.03054 | 37447 ft | 504 kts | 294° |
| 2026-04-12 20:45 | 63.83463 | -9.17446 | 37458 ft | 503 kts | 294° |
| 2026-04-12 20:45 | 63.86398 | -9.31856 | 37439 ft | 503 kts | 294° |
| 2026-04-12 20:46 | 63.89318 | -9.46288 | 37447 ft | 503 kts | 293° |
| 2026-04-12 20:46 | 63.92197 | -9.60631 | 37447 ft | 502 kts | 293° |
| 2026-04-12 20:47 | 63.95082 | -9.75097 | 37452 ft | 502 kts | 293° |
| 2026-04-12 20:47 | 63.97957 | -9.89611 | 37455 ft | 503 kts | 293° |
| 2026-04-12 20:48 | 64.00835 | -10.04167 | 37451 ft | 504 kts | 294° |
| 2026-04-12 20:48 | 64.03854 | -10.18603 | 37458 ft | 505 kts | 295° |
| 2026-04-12 20:49 | 64.06903 | -10.32935 | 37459 ft | 505 kts | 295° |
| 2026-04-12 20:49 | 64.09944 | -10.47415 | 37458 ft | 505 kts | 294° |
| 2026-04-12 20:50 | 64.12955 | -10.61961 | 37456 ft | 506 kts | 294° |
| 2026-04-12 20:50 | 64.15947 | -10.76549 | 37460 ft | 506 kts | 294° |
| 2026-04-12 20:51 | 64.18909 | -10.91102 | 37461 ft | 507 kts | 294° |
| 2026-04-12 20:51 | 64.21877 | -11.05770 | 37456 ft | 507 kts | 294° |
| 2026-04-12 20:52 | 64.24829 | -11.20471 | 37458 ft | 506 kts | 294° |
| 2026-04-12 20:52 | 64.27765 | -11.35187 | 37457 ft | 506 kts | 294° |
| 2026-04-12 20:53 | 64.30684 | -11.49930 | 37457 ft | 505 kts | 294° |
| 2026-04-12 20:53 | 64.33560 | -11.64559 | 37462 ft | 504 kts | 293° |
| 2026-04-12 20:54 | 64.36438 | -11.79304 | 37462 ft | 503 kts | 293° |
| 2026-04-12 20:54 | 64.39291 | -11.94031 | 37470 ft | 502 kts | 293° |
| 2026-04-12 20:55 | 64.42123 | -12.08763 | 37469 ft | 501 kts | 293° |
| 2026-04-12 20:55 | 64.44921 | -12.23400 | 37466 ft | 501 kts | 293° |
| 2026-04-12 20:56 | 64.47722 | -12.38162 | 37469 ft | 500 kts | 293° |
| 2026-04-12 20:56 | 64.50508 | -12.52960 | 37465 ft | 501 kts | 292° |
| 2026-04-12 20:57 | 64.53277 | -12.67793 | 37476 ft | 501 kts | 292° |
| 2026-04-12 20:57 | 64.56038 | -12.82685 | 37468 ft | 501 kts | 292° |
| 2026-04-12 20:58 | 64.58768 | -12.97510 | 37467 ft | 502 kts | 292° |
| 2026-04-12 20:58 | 64.61501 | -13.12469 | 37471 ft | 502 kts | 292° |
| 2026-04-12 20:59 | 64.64221 | -13.27473 | 37473 ft | 503 kts | 292° |
| 2026-04-12 20:59 | 64.66928 | -13.42520 | 37472 ft | 503 kts | 292° |
| 2026-04-12 21:00 | 64.69601 | -13.57487 | 37467 ft | 503 kts | 292° |
| 2026-04-12 21:00 | 64.72278 | -13.72591 | 37470 ft | 503 kts | 292° |
| 2026-04-12 21:01 | 64.74940 | -13.87726 | 37467 ft | 503 kts | 292° |
| 2026-04-12 21:01 | 64.77583 | -14.02879 | 37469 ft | 503 kts | 291° |
| 2026-04-12 21:02 | 64.80212 | -14.18079 | 37468 ft | 502 kts | 291° |
| 2026-04-12 21:02 | 64.82809 | -14.33186 | 37469 ft | 502 kts | 291° |
| 2026-04-12 21:03 | 64.85402 | -14.48403 | 37471 ft | 502 kts | 291° |
| 2026-04-12 21:03 | 64.87981 | -14.63661 | 37465 ft | 502 kts | 291° |
| 2026-04-12 21:04 | 64.90543 | -14.78941 | 37469 ft | 502 kts | 291° |
| 2026-04-12 21:04 | 64.93075 | -14.94157 | 37463 ft | 502 kts | 291° |
| 2026-04-12 21:05 | 64.95607 | -15.09502 | 37471 ft | 502 kts | 291° |
| 2026-04-12 21:05 | 64.98124 | -15.24880 | 37462 ft | 502 kts | 290° |
| 2026-04-12 21:06 | 65.00626 | -15.40283 | 37468 ft | 502 kts | 290° |
| 2026-04-12 21:06 | 65.03111 | -15.55712 | 37466 ft | 502 kts | 290° |
| 2026-04-12 21:07 | 65.05564 | -15.71079 | 37463 ft | 502 kts | 290° |
| 2026-04-12 21:07 | 65.08017 | -15.86566 | 37457 ft | 502 kts | 290° |
| 2026-04-12 21:08 | 65.10454 | -16.02085 | 37459 ft | 502 kts | 290° |
| 2026-04-12 21:08 | 65.12874 | -16.17619 | 37459 ft | 502 kts | 290° |
| 2026-04-12 21:09 | 65.15276 | -16.33167 | 37464 ft | 501 kts | 290° |
| 2026-04-12 21:09 | 65.17649 | -16.48660 | 37462 ft | 501 kts | 289° |
| 2026-04-12 21:10 | 65.20018 | -16.64269 | 37463 ft | 501 kts | 289° |
| 2026-04-12 21:10 | 65.22366 | -16.79884 | 37461 ft | 501 kts | 289° |
| 2026-04-12 21:11 | 65.24699 | -16.95513 | 37461 ft | 500 kts | 289° |
| 2026-04-12 21:11 | 65.26999 | -17.11064 | 37464 ft | 500 kts | 289° |
| 2026-04-12 21:12 | 65.29296 | -17.26737 | 37466 ft | 500 kts | 289° |
| 2026-04-12 21:12 | 65.31560 | -17.42310 | 37470 ft | 500 kts | 289° |
| 2026-04-12 21:13 | 65.33843 | -17.58163 | 37474 ft | 500 kts | 288° |
| 2026-04-12 21:13 | 65.36096 | -17.73942 | 37468 ft | 501 kts | 288° |
| 2026-04-12 21:14 | 65.38318 | -17.89646 | 37469 ft | 501 kts | 288° |
| 2026-04-12 21:14 | 65.40535 | -18.05476 | 37465 ft | 501 kts | 288° |
| 2026-04-12 21:15 | 65.42737 | -18.21333 | 37466 ft | 501 kts | 288° |
| 2026-04-12 21:15 | 65.44925 | -18.37234 | 37470 ft | 502 kts | 288° |
| 2026-04-12 21:16 | 65.47086 | -18.53076 | 37470 ft | 502 kts | 288° |
| 2026-04-12 21:16 | 65.49242 | -18.69038 | 37474 ft | 501 kts | 288° |
| 2026-04-12 21:17 | 65.51374 | -18.84983 | 37464 ft | 499 kts | 287° |
| 2026-04-12 21:17 | 65.53487 | -19.00920 | 37469 ft | 498 kts | 287° |
| 2026-04-12 21:18 | 65.55564 | -19.16739 | 37473 ft | 497 kts | 287° |
| 2026-04-12 21:18 | 65.57634 | -19.32664 | 37474 ft | 496 kts | 287° |
| 2026-04-12 21:19 | 65.59686 | -19.48595 | 37476 ft | 496 kts | 287° |
| 2026-04-12 21:19 | 65.61718 | -19.64545 | 37486 ft | 496 kts | 287° |
| 2026-04-12 21:20 | 65.63736 | -19.80520 | 37484 ft | 496 kts | 287° |
| 2026-04-12 21:20 | 65.65725 | -19.96419 | 37486 ft | 497 kts | 287° |
| 2026-04-12 21:21 | 65.67710 | -20.12451 | 37502 ft | 496 kts | 286° |
| 2026-04-12 21:21 | 65.69679 | -20.28522 | 37497 ft | 497 kts | 286° |
| 2026-04-12 21:22 | 65.71631 | -20.44614 | 37505 ft | 497 kts | 286° |
| 2026-04-12 21:22 | 65.73554 | -20.60623 | 37518 ft | 496 kts | 286° |
| 2026-04-12 21:23 | 65.75471 | -20.76749 | 37523 ft | 496 kts | 286° |
| 2026-04-12 21:23 | 65.77371 | -20.92896 | 37529 ft | 496 kts | 286° |
| 2026-04-12 21:24 | 65.79252 | -21.09048 | 37537 ft | 495 kts | 285° |
| 2026-04-12 21:24 | 65.81097 | -21.25079 | 37544 ft | 495 kts | 285° |
| 2026-04-12 21:25 | 65.82940 | -21.41245 | 37554 ft | 495 kts | 285° |
| 2026-04-12 21:25 | 65.84767 | -21.57451 | 37556 ft | 495 kts | 285° |
| 2026-04-12 21:26 | 65.86575 | -21.73659 | 37568 ft | 495 kts | 285° |
| 2026-04-12 21:26 | 65.89241 | -21.97894 | 37578 ft | 495 kts | 285° |
| 2026-04-12 21:27 | 65.91008 | -22.14180 | 37583 ft | 495 kts | 285° |
| 2026-04-12 21:27 | 65.92759 | -22.30478 | 37589 ft | 495 kts | 284° |
| 2026-04-12 21:28 | 65.94491 | -22.46810 | 37595 ft | 495 kts | 284° |
| 2026-04-12 21:28 | 65.96195 | -22.63050 | 37597 ft | 495 kts | 284° |
| 2026-04-12 21:29 | 65.97892 | -22.79413 | 37605 ft | 495 kts | 284° |
| 2026-04-12 21:29 | 65.99573 | -22.95781 | 37611 ft | 494 kts | 284° |
| 2026-04-12 21:30 | 66.01350 | -23.12092 | 37552 ft | 495 kts | 287° |
| 2026-04-12 21:30 | 66.03351 | -23.28189 | 37546 ft | 496 kts | 287° |
| 2026-04-12 21:31 | 66.05367 | -23.44410 | 37550 ft | 495 kts | 287° |
| 2026-04-12 21:31 | 66.07329 | -23.60658 | 37543 ft | 495 kts | 286° |
| 2026-04-12 21:32 | 66.09248 | -23.76918 | 37557 ft | 493 kts | 286° |
| 2026-04-12 21:32 | 66.11126 | -23.93056 | 37551 ft | 493 kts | 286° |
| 2026-04-12 21:33 | 66.12999 | -24.09309 | 37562 ft | 492 kts | 286° |
| 2026-04-12 21:33 | 66.14857 | -24.25560 | 37566 ft | 491 kts | 286° |
| 2026-04-12 21:34 | 66.16695 | -24.41822 | 37579 ft | 491 kts | 285° |
| 2026-04-12 21:34 | 66.18515 | -24.58125 | 37584 ft | 492 kts | 285° |
| 2026-04-12 21:35 | 66.20306 | -24.74332 | 37594 ft | 492 kts | 285° |
| 2026-04-12 21:35 | 66.22098 | -24.90715 | 37593 ft | 492 kts | 285° |
| 2026-04-12 21:36 | 66.23868 | -25.07092 | 37601 ft | 492 kts | 285° |
| 2026-04-12 21:36 | 66.25622 | -25.23493 | 37612 ft | 492 kts | 285° |
| 2026-04-12 21:37 | 66.27347 | -25.39799 | 37621 ft | 491 kts | 285° |
| 2026-04-12 21:37 | 66.29063 | -25.56227 | 37621 ft | 491 kts | 285° |
| 2026-04-12 21:38 | 66.30761 | -25.72657 | 37629 ft | 490 kts | 284° |
| 2026-04-12 21:38 | 66.32438 | -25.89046 | 37634 ft | 489 kts | 284° |
| 2026-04-12 21:39 | 66.34081 | -26.05315 | 37641 ft | 488 kts | 284° |
| 2026-04-12 21:39 | 66.35715 | -26.21693 | 37646 ft | 487 kts | 284° |
| 2026-04-12 21:40 | 66.37331 | -26.38084 | 37658 ft | 487 kts | 284° |
| 2026-04-12 21:40 | 66.38929 | -26.54487 | 37667 ft | 487 kts | 284° |
| 2026-04-12 21:41 | 66.40501 | -26.70808 | 37672 ft | 487 kts | 283° |
| 2026-04-12 21:41 | 66.42067 | -26.87283 | 37678 ft | 488 kts | 283° |
| 2026-04-12 21:42 | 66.43616 | -27.03789 | 37692 ft | 488 kts | 283° |
| 2026-04-12 21:42 | 66.45152 | -27.20333 | 37703 ft | 489 kts | 283° |
| 2026-04-12 21:43 | 66.46660 | -27.36788 | 37707 ft | 489 kts | 283° |
| 2026-04-12 21:43 | 66.48161 | -27.53388 | 37719 ft | 489 kts | 283° |
| 2026-04-12 21:44 | 66.49643 | -27.70013 | 37732 ft | 489 kts | 283° |
| 2026-04-12 21:44 | 66.51109 | -27.86636 | 37737 ft | 489 kts | 282° |
| 2026-04-12 21:45 | 66.52547 | -28.03177 | 37745 ft | 488 kts | 282° |
| 2026-04-12 21:45 | 66.53973 | -28.19808 | 37751 ft | 487 kts | 282° |
| 2026-04-12 21:46 | 66.55381 | -28.36436 | 37759 ft | 487 kts | 282° |
| 2026-04-12 21:46 | 66.56771 | -28.53081 | 37770 ft | 487 kts | 282° |
| 2026-04-12 21:47 | 66.58132 | -28.69624 | 37775 ft | 486 kts | 281° |
| 2026-04-12 21:47 | 66.59481 | -28.86272 | 37786 ft | 486 kts | 281° |
| 2026-04-12 21:48 | 66.60816 | -29.02937 | 37798 ft | 486 kts | 281° |
| 2026-04-12 21:48 | 66.62130 | -29.19602 | 37809 ft | 485 kts | 281° |
| 2026-04-12 21:49 | 66.63427 | -29.36285 | 37816 ft | 485 kts | 281° |
| 2026-04-12 21:49 | 66.64697 | -29.52860 | 37822 ft | 485 kts | 281° |
| 2026-04-12 21:50 | 66.65956 | -29.69563 | 37828 ft | 485 kts | 281° |
| 2026-04-12 21:50 | 66.67197 | -29.86260 | 37838 ft | 484 kts | 280° |
| 2026-04-12 21:51 | 66.68419 | -30.02956 | 37844 ft | 483 kts | 280° |
| 2026-04-12 21:51 | 66.69613 | -30.19519 | 37854 ft | 482 kts | 280° |
| 2026-04-12 21:52 | 66.70797 | -30.36196 | 37860 ft | 482 kts | 280° |
| 2026-04-12 21:52 | 66.71960 | -30.52864 | 37865 ft | 482 kts | 279° |
| 2026-04-12 21:53 | 66.73106 | -30.69554 | 37877 ft | 482 kts | 279° |
| 2026-04-12 21:53 | 66.74237 | -30.86266 | 37886 ft | 482 kts | 279° |
| 2026-04-12 21:54 | 66.75342 | -31.02904 | 37892 ft | 483 kts | 279° |
| 2026-04-12 21:54 | 66.76436 | -31.19662 | 37897 ft | 482 kts | 279° |
| 2026-04-12 21:55 | 66.77513 | -31.36422 | 37902 ft | 482 kts | 278° |
| 2026-04-12 21:55 | 66.78571 | -31.53192 | 37909 ft | 482 kts | 278° |
| 2026-04-12 21:56 | 66.79605 | -31.69844 | 37917 ft | 481 kts | 278° |
| 2026-04-12 21:56 | 66.80624 | -31.86596 | 37919 ft | 480 kts | 278° |
| 2026-04-12 21:57 | 66.81625 | -32.03342 | 37927 ft | 480 kts | 278° |
| 2026-04-12 21:57 | 66.82608 | -32.20097 | 37934 ft | 479 kts | 278° |
| 2026-04-12 21:58 | 66.83566 | -32.36710 | 37935 ft | 479 kts | 278° |
| 2026-04-12 21:58 | 66.84511 | -32.53430 | 37946 ft | 478 kts | 278° |
| 2026-04-12 21:59 | 66.85438 | -32.70175 | 37948 ft | 478 kts | 277° |
| 2026-04-12 21:59 | 66.86347 | -32.86909 | 37954 ft | 478 kts | 277° |
| 2026-04-12 22:00 | 66.87239 | -33.03677 | 37956 ft | 478 kts | 277° |
| 2026-04-12 22:00 | 66.88105 | -33.20326 | 37965 ft | 478 kts | 277° |
| 2026-04-12 22:01 | 66.88961 | -33.37119 | 37966 ft | 478 kts | 277° |
| 2026-04-12 22:01 | 66.89799 | -33.53910 | 37971 ft | 478 kts | 276° |
| 2026-04-12 22:02 | 66.90621 | -33.70726 | 37976 ft | 478 kts | 276° |
| 2026-04-12 22:02 | 66.91418 | -33.87426 | 37969 ft | 478 kts | 276° |
| 2026-04-12 22:03 | 66.92202 | -34.04231 | 37985 ft | 478 kts | 276° |
| 2026-04-12 22:03 | 66.92969 | -34.21056 | 37983 ft | 478 kts | 276° |
| 2026-04-12 22:04 | 66.93717 | -34.37870 | 37979 ft | 477 kts | 276° |
| 2026-04-12 22:04 | 66.94442 | -34.54576 | 37986 ft | 477 kts | 276° |
| 2026-04-12 22:05 | 66.95154 | -34.71389 | 37991 ft | 477 kts | 275° |
| 2026-04-12 22:05 | 66.95847 | -34.88228 | 37991 ft | 477 kts | 275° |
| 2026-04-12 22:06 | 66.96523 | -35.05049 | 37991 ft | 476 kts | 275° |
| 2026-04-12 22:06 | 66.97181 | -35.21883 | 37993 ft | 476 kts | 275° |
| 2026-04-12 22:07 | 66.97817 | -35.38608 | 38002 ft | 476 kts | 275° |
| 2026-04-12 22:07 | 66.98439 | -35.55450 | 37999 ft | 476 kts | 275° |
| 2026-04-12 22:08 | 66.99044 | -35.72285 | 37998 ft | 476 kts | 275° |
| 2026-04-12 22:08 | 66.99632 | -35.89110 | 38001 ft | 475 kts | 274° |
| 2026-04-12 22:09 | 67.00200 | -36.05839 | 37999 ft | 475 kts | 274° |
| 2026-04-12 22:09 | 67.00771 | -36.22667 | 38000 ft | 474 kts | 274° |
| 2026-04-12 22:10 | 67.01332 | -36.39474 | 38001 ft | 474 kts | 274° |
| 2026-04-12 22:10 | 67.01872 | -36.56268 | 38010 ft | 474 kts | 274° |
| 2026-04-12 22:11 | 67.02391 | -36.72952 | 38008 ft | 474 kts | 274° |
| 2026-04-12 22:11 | 67.02894 | -36.89778 | 38011 ft | 474 kts | 274° |
| 2026-04-12 22:12 | 67.03380 | -37.06599 | 38007 ft | 474 kts | 273° |
| 2026-04-12 22:12 | 67.03849 | -37.23443 | 38015 ft | 474 kts | 273° |
| 2026-04-12 22:13 | 67.04298 | -37.40193 | 38022 ft | 474 kts | 273° |
| 2026-04-12 22:13 | 67.04731 | -37.57032 | 38029 ft | 474 kts | 273° |
| 2026-04-12 22:14 | 67.05147 | -37.73889 | 38017 ft | 474 kts | 272° |
| 2026-04-12 22:14 | 67.05544 | -37.90768 | 38020 ft | 474 kts | 272° |
| 2026-04-12 22:15 | 67.05921 | -38.07518 | 38016 ft | 474 kts | 272° |
| 2026-04-12 22:15 | 67.06283 | -38.24373 | 38020 ft | 474 kts | 272° |
| 2026-04-12 22:16 | 67.06628 | -38.41232 | 38018 ft | 473 kts | 272° |
| 2026-04-12 22:16 | 67.06953 | -38.58077 | 38028 ft | 473 kts | 272° |
| 2026-04-12 22:17 | 67.07260 | -38.74800 | 38030 ft | 473 kts | 271° |
| 2026-04-12 22:17 | 67.07549 | -38.91647 | 38022 ft | 473 kts | 271° |
| 2026-04-12 22:18 | 67.07820 | -39.08479 | 38020 ft | 473 kts | 271° |
| 2026-04-12 22:18 | 67.08033 | -39.22478 | 38017 ft | 473 kts | 271° |
| 2026-04-12 22:19 | 67.08312 | -39.42077 | 38017 ft | 473 kts | 271° |
| 2026-04-12 22:19 | 67.08530 | -39.58928 | 38023 ft | 473 kts | 271° |
| 2026-04-12 22:20 | 67.08698 | -39.72938 | 38027 ft | 473 kts | 270° |
| 2026-04-12 22:20 | 67.08887 | -39.89790 | 38029 ft | 473 kts | 270° |
| 2026-04-12 22:21 | 67.09079 | -40.09395 | 38027 ft | 473 kts | 270° |
| 2026-04-12 22:21 | 67.09227 | -40.26251 | 38027 ft | 472 kts | 270° |
| 2026-04-12 22:22 | 67.09336 | -40.40259 | 38026 ft | 472 kts | 270° |
| 2026-04-12 22:22 | 67.09452 | -40.57121 | 38026 ft | 472 kts | 270° |
| 2026-04-12 22:23 | 67.09563 | -40.76698 | 38027 ft | 472 kts | 269° |
| 2026-04-12 22:23 | 67.09629 | -40.90795 | 38031 ft | 471 kts | 269° |
| 2026-04-12 22:24 | 67.09692 | -41.07492 | 38037 ft | 471 kts | 269° |
| 2026-04-12 22:24 | 67.09737 | -41.24315 | 38037 ft | 471 kts | 269° |
| 2026-04-12 22:25 | 67.09763 | -41.41124 | 38039 ft | 471 kts | 269° |
| 2026-04-12 22:25 | 67.09771 | -41.57950 | 38036 ft | 471 kts | 269° |
| 2026-04-12 22:26 | 67.09761 | -41.74674 | 38042 ft | 471 kts | 268° |
| 2026-04-12 22:26 | 67.09734 | -41.91498 | 38046 ft | 471 kts | 268° |
| 2026-04-12 22:27 | 67.09691 | -42.08329 | 38047 ft | 472 kts | 268° |
| 2026-04-12 22:27 | 67.09629 | -42.25155 | 38046 ft | 471 kts | 268° |
| 2026-04-12 22:28 | 67.09551 | -42.41982 | 38050 ft | 471 kts | 268° |
| 2026-04-12 22:28 | 67.09454 | -42.58688 | 38059 ft | 471 kts | 268° |
| 2026-04-12 22:29 | 67.09339 | -42.75481 | 38054 ft | 471 kts | 267° |
| 2026-04-12 22:29 | 67.09207 | -42.92263 | 38063 ft | 470 kts | 267° |
| 2026-04-12 22:30 | 67.09057 | -43.09041 | 38063 ft | 470 kts | 267° |
| 2026-04-12 22:30 | 67.08890 | -43.25810 | 38064 ft | 470 kts | 266° |
| 2026-04-12 22:31 | 67.08707 | -43.42458 | 38071 ft | 470 kts | 266° |
| 2026-04-12 22:31 | 67.08505 | -43.59190 | 38074 ft | 469 kts | 266° |
| 2026-04-12 22:32 | 67.08285 | -43.75915 | 38075 ft | 469 kts | 266° |
| 2026-04-12 22:32 | 67.08049 | -43.92646 | 38089 ft | 469 kts | 266° |
| 2026-04-12 22:33 | 67.07795 | -44.09236 | 38089 ft | 469 kts | 265° |
| 2026-04-12 22:33 | 67.07524 | -44.25941 | 38091 ft | 469 kts | 265° |
| 2026-04-12 22:34 | 67.07233 | -44.42663 | 38097 ft | 470 kts | 265° |
| 2026-04-12 22:34 | 67.06926 | -44.59396 | 38090 ft | 470 kts | 265° |
| 2026-04-12 22:35 | 67.06602 | -44.76113 | 38104 ft | 469 kts | 265° |
| 2026-04-12 22:35 | 67.06265 | -44.92671 | 38104 ft | 468 kts | 265° |
| 2026-04-12 22:36 | 67.05907 | -45.09350 | 38104 ft | 469 kts | 265° |
| 2026-04-12 22:36 | 67.05531 | -45.26009 | 38110 ft | 468 kts | 264° |
| 2026-04-12 22:37 | 67.05136 | -45.42657 | 38109 ft | 468 kts | 264° |
| 2026-04-12 22:37 | 67.04728 | -45.59157 | 38133 ft | 467 kts | 264° |
| 2026-04-12 22:38 | 67.04303 | -45.75733 | 38128 ft | 460 kts | 264° |
| 2026-04-12 22:38 | 67.04092 | -45.83803 | 38102 ft | 448 kts | 264° |
| 2026-04-12 22:38 | 67.03880 | -45.91682 | 37830 ft | 440 kts | 264° |
| 2026-04-12 22:39 | 67.03668 | -45.99447 | 37489 ft | 435 kts | 263° |
| 2026-04-12 22:39 | 67.03454 | -46.07133 | 37111 ft | 430 kts | 263° |
| 2026-04-12 22:39 | 67.03237 | -46.14732 | 36729 ft | 426 kts | 263° |
| 2026-04-12 22:40 | 67.02802 | -46.29631 | 35963 ft | 419 kts | 263° |
| 2026-04-12 22:40 | 67.02580 | -46.37045 | 35554 ft | 416 kts | 263° |
| 2026-04-12 22:40 | 67.02356 | -46.44407 | 35139 ft | 414 kts | 263° |
| 2026-04-12 22:40 | 67.02130 | -46.51725 | 34748 ft | 411 kts | 263° |
| 2026-04-12 22:41 | 67.01902 | -46.58976 | 34353 ft | 408 kts | 263° |
| 2026-04-12 22:41 | 67.01673 | -46.66192 | 33963 ft | 405 kts | 263° |
| 2026-04-12 22:41 | 67.01443 | -46.73351 | 33570 ft | 402 kts | 263° |
| 2026-04-12 22:41 | 67.01212 | -46.80458 | 33188 ft | 400 kts | 263° |
| 2026-04-12 22:42 | 67.00981 | -46.87423 | 32790 ft | 397 kts | 263° |
| 2026-04-12 22:42 | 67.00746 | -46.94431 | 32400 ft | 394 kts | 263° |
| 2026-04-12 22:42 | 67.00509 | -47.01400 | 32015 ft | 392 kts | 263° |
| 2026-04-12 22:42 | 67.00271 | -47.08319 | 31631 ft | 389 kts | 263° |
| 2026-04-12 22:43 | 67.00031 | -47.15185 | 31250 ft | 387 kts | 263° |
| 2026-04-12 22:43 | 66.99789 | -47.22022 | 30872 ft | 385 kts | 263° |
| 2026-04-12 22:43 | 66.99546 | -47.28802 | 30497 ft | 382 kts | 263° |
| 2026-04-12 22:43 | 66.99302 | -47.35551 | 30126 ft | 380 kts | 263° |
| 2026-04-12 22:44 | 66.99058 | -47.42238 | 29746 ft | 378 kts | 263° |
| 2026-04-12 22:44 | 66.98814 | -47.48820 | 29338 ft | 376 kts | 263° |
| 2026-04-12 22:44 | 66.98565 | -47.55468 | 28923 ft | 375 kts | 263° |
| 2026-04-12 22:44 | 66.98314 | -47.62104 | 28510 ft | 375 kts | 263° |
| 2026-04-12 22:45 | 66.98060 | -47.68722 | 28099 ft | 374 kts | 263° |
| 2026-04-12 22:45 | 66.97805 | -47.75320 | 27690 ft | 373 kts | 263° |
| 2026-04-12 22:45 | 66.97548 | -47.81896 | 27280 ft | 372 kts | 262° |
| 2026-04-12 22:45 | 66.97288 | -47.88449 | 26874 ft | 371 kts | 263° |
| 2026-04-12 22:46 | 66.97026 | -47.94995 | 26467 ft | 370 kts | 262° |
| 2026-04-12 22:46 | 66.96766 | -48.01434 | 26069 ft | 369 kts | 263° |
| 2026-04-12 22:46 | 66.96500 | -48.07939 | 25667 ft | 368 kts | 262° |
| 2026-04-12 22:46 | 66.96233 | -48.14427 | 25266 ft | 367 kts | 262° |
| 2026-04-12 22:47 | 66.95964 | -48.20904 | 24870 ft | 366 kts | 262° |
| 2026-04-12 22:47 | 66.95693 | -48.27356 | 24475 ft | 365 kts | 262° |
| 2026-04-12 22:47 | 66.95418 | -48.33770 | 24069 ft | 361 kts | 263° |
| 2026-04-12 22:47 | 66.95136 | -48.40098 | 23688 ft | 358 kts | 263° |
| 2026-04-12 22:48 | 66.94853 | -48.46381 | 23302 ft | 355 kts | 263° |
| 2026-04-12 22:48 | 66.94570 | -48.52708 | 22954 ft | 373 kts | 263° |
| 2026-04-12 22:48 | 66.94282 | -48.59455 | 22529 ft | 383 kts | 263° |
| 2026-04-12 22:48 | 66.93995 | -48.66215 | 22103 ft | 392 kts | 263° |
| 2026-04-12 22:49 | 66.93704 | -48.72937 | 21641 ft | 368 kts | 262° |
| 2026-04-12 22:49 | 66.93427 | -48.79185 | 21214 ft | 342 kts | 262° |
| 2026-04-12 22:49 | 66.93164 | -48.85001 | 20834 ft | 319 kts | 262° |
| 2026-04-12 22:49 | 66.92914 | -48.90426 | 20482 ft | 298 kts | 261° |
| 2026-04-12 22:50 | 66.92677 | -48.95525 | 20163 ft | 285 kts | 261° |
| 2026-04-12 22:50 | 66.92439 | -49.00566 | 19865 ft | 288 kts | 261° |
| 2026-04-12 22:50 | 66.92190 | -49.05753 | 19551 ft | 305 kts | 261° |
| 2026-04-12 22:50 | 66.91925 | -49.11223 | 19196 ft | 321 kts | 261° |
| 2026-04-12 22:51 | 66.91651 | -49.16897 | 18795 ft | 324 kts | 261° |
| 2026-04-12 22:51 | 66.91375 | -49.22634 | 18272 ft | 327 kts | 261° |
| 2026-04-12 22:51 | 66.91092 | -49.28442 | 17834 ft | 335 kts | 261° |
| 2026-04-12 22:51 | 66.90797 | -49.34443 | 17423 ft | 348 kts | 261° |
| 2026-04-12 22:52 | 66.90525 | -49.39915 | 17043 ft | 359 kts | 261° |
| 2026-04-12 22:52 | 66.90205 | -49.46332 | 16593 ft | 371 kts | 261° |
| 2026-04-12 22:52 | 66.89873 | -49.52947 | 16131 ft | 382 kts | 261° |
| 2026-04-12 22:52 | 66.89529 | -49.59740 | 15653 ft | 392 kts | 261° |
| 2026-04-12 22:53 | 66.89180 | -49.66589 | 15313 ft | 398 kts | 261° |
| 2026-04-12 22:53 | 66.88822 | -49.73546 | 14890 ft | 395 kts | 261° |
| 2026-04-12 22:53 | 66.88465 | -49.80423 | 14400 ft | 389 kts | 261° |
| 2026-04-12 22:53 | 66.88113 | -49.87175 | 13952 ft | 381 kts | 261° |
| 2026-04-12 22:54 | 66.87776 | -49.93620 | 13301 ft | 357 kts | 261° |
| 2026-04-12 22:54 | 66.87456 | -49.99650 | 12769 ft | 330 kts | 260° |
| 2026-04-12 22:54 | 66.87162 | -50.05185 | 12363 ft | 302 kts | 260° |
| 2026-04-12 22:54 | 66.86887 | -50.10290 | 11975 ft | 285 kts | 260° |
| 2026-04-12 22:55 | 66.86612 | -50.15311 | 11659 ft | 297 kts | 260° |
| 2026-04-12 22:55 | 66.86321 | -50.20579 | 11280 ft | 302 kts | 260° |
| 2026-04-12 22:55 | 66.86031 | -50.25844 | 10901 ft | 299 kts | 260° |
| 2026-04-12 22:55 | 66.85742 | -50.31061 | 10522 ft | 297 kts | 260° |
| 2026-04-12 22:56 | 66.85455 | -50.36236 | 10169 ft | 294 kts | 261° |
| 2026-04-12 22:56 | 66.85167 | -50.41367 | 10139 ft | 290 kts | 261° |
| 2026-04-12 22:56 | 66.84887 | -50.46351 | 9816 ft | 280 kts | 261° |
| 2026-04-12 22:56 | 66.84611 | -50.51211 | 9413 ft | 276 kts | 261° |
| 2026-04-12 22:57 | 66.84339 | -50.55979 | 9067 ft | 271 kts | 261° |
| 2026-04-12 22:57 | 66.84074 | -50.60609 | 8732 ft | 266 kts | 261° |
| 2026-04-12 22:57 | 66.83809 | -50.65225 | 8413 ft | 263 kts | 261° |
| 2026-04-12 22:57 | 66.83540 | -50.69859 | 8104 ft | 268 kts | 261° |
| 2026-04-12 22:58 | 66.83265 | -50.74595 | 7771 ft | 274 kts | 261° |
| 2026-04-12 22:58 | 66.82986 | -50.79363 | 7446 ft | 270 kts | 261° |
| 2026-04-12 22:58 | 66.82712 | -50.83990 | 7118 ft | 261 kts | 261° |
| 2026-04-12 22:58 | 66.82447 | -50.88503 | 6801 ft | 256 kts | 261° |
| 2026-04-12 22:59 | 66.82186 | -50.92959 | 6489 ft | 254 kts | 261° |
| 2026-04-12 22:59 | 66.81919 | -50.97440 | 6192 ft | 260 kts | 261° |
| 2026-04-12 22:59 | 66.81646 | -51.01999 | 5871 ft | 261 kts | 261° |
| 2026-04-12 22:59 | 66.81380 | -51.06466 | 5554 ft | 256 kts | 263° |
| 2026-04-12 23:00 | 66.81492 | -51.10851 | 5232 ft | 249 kts | 291° |
| 2026-04-12 23:00 | 66.82464 | -51.14375 | 5115 ft | 241 kts | 319° |
| 2026-04-12 23:00 | 66.83837 | -51.16797 | 5061 ft | 241 kts | 330° |
| 2026-04-12 23:00 | 66.85299 | -51.18819 | 4874 ft | 239 kts | 332° |
| 2026-04-12 23:01 | 66.86750 | -51.20799 | 4635 ft | 233 kts | 332° |
| 2026-04-12 23:01 | 66.88194 | -51.22298 | 4519 ft | 217 kts | 353° |
| 2026-04-12 23:01 | 66.89606 | -51.21643 | 4416 ft | 203 kts | 31° |
| 2026-04-12 23:01 | 66.90547 | -51.19240 | 4316 ft | 184 kts | 53° |
| 2026-04-12 23:02 | 66.91276 | -51.16673 | 4096 ft | 176 kts | 54° |
| 2026-04-12 23:02 | 66.91974 | -51.14156 | 3839 ft | 172 kts | 57° |
| 2026-04-12 23:02 | 66.92598 | -51.11582 | 3545 ft | 170 kts | 60° |
| 2026-04-12 23:02 | 66.93179 | -51.08965 | 3250 ft | 168 kts | 61° |
| 2026-04-12 23:03 | 66.93744 | -51.06351 | 2953 ft | 167 kts | 62° |
| 2026-04-12 23:03 | 66.94292 | -51.03784 | 2778 ft | 165 kts | 62° |
| 2026-04-12 23:03 | 66.94838 | -51.01223 | 2631 ft | 164 kts | 62° |
| 2026-04-12 23:03 | 66.95384 | -50.98656 | 2572 ft | 165 kts | 62° |
| 2026-04-12 23:04 | 66.95938 | -50.96055 | 2526 ft | 168 kts | 62° |
| 2026-04-12 23:04 | 66.96489 | -50.93464 | 2511 ft | 168 kts | 62° |
| 2026-04-12 23:04 | 66.97044 | -50.90860 | 2519 ft | 166 kts | 62° |
| 2026-04-12 23:04 | 66.97592 | -50.88274 | 2447 ft | 166 kts | 62° |
| 2026-04-12 23:05 | 66.98142 | -50.85686 | 2073 ft | 166 kts | 62° |
| 2026-04-12 23:05 | 66.98690 | -50.83109 | 1631 ft | 165 kts | 63° |
| 2026-04-12 23:05 | 66.99240 | -50.80511 | 1099 ft | 169 kts | 61° |
| 2026-04-12 23:05 | 66.99759 | -50.77913 | 737 ft | 157 kts | 62° |
| 2026-04-12 23:06 | 67.00297 | -50.75517 | 358 ft | 154 kts | 59° |
| 2026-04-12 23:06 | 67.00769 | -50.73286 | 139 ft | 133 kts | 63° |
| 2026-04-12 23:06 | 67.01162 | -50.71427 | 148 ft | 97 kts | 61° |
| 2026-04-12 23:06 | 67.01398 | -50.70336 | 158 ft | 45 kts | 61° |
| 2026-04-12 23:07 | 67.01510 | -50.69806 | 164 ft | 31 kts | 62° |
| 2026-04-12 23:07 | 67.01606 | -50.69338 | 171 ft | 29 kts | 66° |
| 2026-04-12 23:07 | 67.01585 | -50.69109 | 173 ft | 12 kts | 147° |
| 2026-04-12 23:07 | 67.01488 | -50.69106 | 171 ft | 16 kts | 197° |
| 2026-04-12 23:08 | 67.01481 | -50.69112 | 171 ft | 0 kts | 201° |
| 2026-04-12 23:09 | 67.01480 | -50.69113 | 171 ft | 1 kts | 201° |
| 2026-04-12 23:10 | 67.01453 | -50.69143 | 170 ft | 7 kts | 205° |
| 2026-04-12 23:10 | 67.01395 | -50.69229 | 169 ft | 12 kts | 215° |
| 2026-04-12 23:10 | 67.01319 | -50.69405 | 166 ft | 17 kts | 228° |
| 2026-04-12 23:10 | 67.01236 | -50.69645 | 163 ft | 20 kts | 231° |
| 2026-04-12 23:11 | 67.01169 | -50.69897 | 160 ft | 20 kts | 240° |
| 2026-04-12 23:11 | 67.01097 | -50.70226 | 157 ft | 21 kts | 243° |
| 2026-04-12 23:11 | 67.01034 | -50.70539 | 153 ft | 20 kts | 243° |
| 2026-04-12 23:11 | 67.00983 | -50.70738 | 151 ft | 13 kts | 218° |
| 2026-04-12 23:12 | 67.00900 | -50.70910 | 148 ft | 18 kts | 234° |
| 2026-04-12 23:12 | 67.00832 | -50.71220 | 145 ft | 22 kts | 241° |
| 2026-04-12 23:12 | 67.00774 | -50.71332 | 143 ft | 7 kts | 148° |
| 2026-04-12 23:12 | 67.00781 | -50.71249 | 144 ft | 5 kts | 63° |
| 2026-04-12 23:13 | 67.00798 | -50.71159 | 145 ft | 6 kts | 65° |
| 2026-04-12 23:13 | 67.00814 | -50.71068 | 146 ft | 6 kts | 64° |
| 2026-04-12 23:13 | 67.00832 | -50.70976 | 147 ft | 6 kts | 64° |
| 2026-04-12 23:13 | 67.00855 | -50.70895 | 148 ft | 6 kts | 43° |
| 2026-04-12 23:14 | 67.00885 | -50.70843 | 149 ft | 3 kts | 22° |
| 2026-04-12 23:14 | 67.00897 | -50.70840 | 149 ft | 4 kts | 0° |
| 2026-04-12 23:14 | 67.00904 | -50.70890 | 149 ft | 6 kts | 268° |
| 2026-04-12 23:14 | 67.00923 | -50.71017 | 148 ft | 7 kts | 305° |
| 2026-04-12 23:15 | 67.00934 | -50.71056 | 147 ft | 0 kts | 305° |
| 2026-04-12 23:17 | 67.00908 | -50.70989 | 148 ft | 0 kts | 144° |